Time;durP1;ratioP1;P1;durP2;ratioP2;P2;SDS_P1;SDS_P2;PMS_P1;PMS_P2;Temp;Humidity;BMP_temperature;BMP_pressure;BME280_temperature;BME280_humidity;BME280_pressure;Samples;Min_cycle;Max_cycle;Signal;HPM_P1;HPM_P2
2021/01/29 00:01:12;;;;;;;;;;;;;;;9.93;100.00;99512.53;4912164;29;19976;-74
2021/01/29 00:03:41;;;;;;;;;;;;;;;9.91;100.00;99514.78;4908999;29;19919;-75
2021/01/29 00:06:12;;;;;;;;;;;;;;;9.89;100.00;99525.38;4917753;29;19923;-74
2021/01/29 00:08:37;;;;;;;;;;;;;;;9.84;100.00;99520.78;4905932;29;19915;-74
2021/01/29 00:11:07;;;;;;;;;;;;;;;9.80;100.00;99516.97;4903684;29;19925;-74
2021/01/29 00:13:33;;;;;;;;;;;;;;;9.74;100.00;99529.31;4915750;29;20373;-74
2021/01/29 00:15:58;;;;;;;;;;;;;;;9.72;100.00;99533.53;4892931;29;19953;-74
2021/01/29 00:18:26;;;;;;;;;;;;;;;9.69;100.00;99528.63;4902732;29;19923;-74
2021/01/29 00:20:52;;;;;;;;;;;;;;;9.66;100.00;99521.75;4910186;29;20000;-74
2021/01/29 00:23:17;;;;;;;;;;;;;;;9.62;100.00;99524.31;4887570;29;20287;-74
2021/01/29 00:25:47;;;;;;;;;;;;;;;9.57;100.00;99527.19;4895659;29;20001;-74
2021/01/29 00:28:15;;;;;;;;;;;;;;;9.56;100.00;99533.88;4899209;29;19919;-74
2021/01/29 00:30:43;;;;;;;;;;;;;;;9.54;100.00;99538.09;4901827;29;19934;-74
2021/01/29 00:33:14;;;;;;;;;;;;;;;9.50;100.00;99546.22;4886989;29;19923;-74
2021/01/29 00:35:41;;;;;;;;;;;;;;;9.48;100.00;99534.63;4882239;29;20017;-74
2021/01/29 00:38:07;;;;;;;;;;;;;;;9.46;100.00;99544.38;4891961;29;19915;-74
2021/01/29 00:40:41;;;;;;;;;;;;;;;9.42;100.00;99546.97;4913901;29;19927;-74
2021/01/29 00:43:20;;;;;;;;;;;;;;;9.37;100.00;99541.50;4917738;29;20026;-74
2021/01/29 00:45:48;;;;;;;;;;;;;;;9.33;100.00;99546.03;4917227;29;19930;-74
2021/01/29 00:48:13;;;;;;;;;;;;;;;9.29;100.00;99531.16;4898120;29;19926;-74
2021/01/29 00:50:41;;;;;;;;;;;;;;;9.25;100.00;99517.09;4870830;29;19915;-74
2021/01/29 00:53:09;;;;;;;;;;;;;;;9.22;100.00;99523.28;4904150;29;19931;-74
2021/01/29 00:55:40;;;;;;;;;;;;;;;9.17;100.00;99517.84;4903908;29;19930;-74
2021/01/29 00:58:06;;;;;;;;;;;;;;;9.13;100.00;99528.69;4919656;29;19926;-74
2021/01/29 01:00:34;;;;;;;;;;;;;;;9.08;100.00;99523.28;4905689;29;19919;-74
2021/01/29 01:03:05;;;;;;;;;;;;;;;9.05;100.00;99523.06;4905549;29;19919;-74
2021/01/29 01:05:47;;;;;;;;;;;;;;;;;;;;;
2021/01/29 01:08:12;;;;;;;;;;;;;;;8.97;100.00;99532.91;4913328;29;19916;-74
2021/01/29 01:10:41;;;;;;;;;;;;;;;8.93;100.00;99527.16;4917109;29;19930;-74
2021/01/29 01:13:08;;;;;;;;;;;;;;;8.86;100.00;99525.91;4904413;29;20001;-74
2021/01/29 01:15:36;;;;;;;;;;;;;;;8.84;100.00;99530.97;4900020;29;19925;-74
2021/01/29 01:18:03;;;;;;;;;;;;;;;8.79;100.00;99534.63;4890811;29;19951;-74
2021/01/29 01:20:31;;;;;;;;;;;;;;;8.77;100.00;99536.06;4918590;29;19930;-74
2021/01/29 01:22:56;;;;;;;;;;;;;;;8.72;100.00;99532.28;4895367;29;19919;-74
2021/01/29 01:25:31;;;;;;;;;;;;;;;8.69;100.00;99543.97;4920486;29;20284;-74
2021/01/29 01:28:14;;;;;;;;;;;;;;;8.66;100.00;99547.34;4890421;29;19958;-74
2021/01/29 01:30:46;;;;;;;;;;;;;;;8.60;100.00;99548.53;4898912;29;19915;-74
2021/01/29 01:33:11;;;;;;;;;;;;;;;8.60;100.00;99548.53;4883414;29;19935;-74
2021/01/29 01:35:37;;;;;;;;;;;;;;;8.57;100.00;99556.63;4875098;29;19971;-74
2021/01/29 01:38:03;;;;;;;;;;;;;;;8.56;100.00;99550.28;4906450;29;20383;-74
2021/01/29 01:40:33;;;;;;;;;;;;;;;8.55;100.00;99540.31;4874621;29;19916;-74
2021/01/29 01:43:03;;;;;;;;;;;;;;;8.52;100.00;99540.94;4888741;29;20006;-74
2021/01/29 01:45:29;;;;;;;;;;;;;;;8.49;100.00;99558.16;4905108;29;19963;-74
2021/01/29 01:47:59;;;;;;;;;;;;;;;8.47;100.00;99569.53;4920470;29;19915;-74
2021/01/29 01:50:28;;;;;;;;;;;;;;;8.46;100.00;99565.09;4889468;29;20005;-74
2021/01/29 01:53:01;;;;;;;;;;;;;;;8.44;100.00;99556.31;4934451;29;19963;-74
2021/01/29 01:55:32;;;;;;;;;;;;;;;8.43;100.00;99570.44;4903899;29;19927;-74
2021/01/29 01:58:04;;;;;;;;;;;;;;;8.43;100.00;99570.44;4911249;29;19915;-74
2021/01/29 02:00:31;;;;;;;;;;;;;;;8.44;100.00;99572.06;4905629;29;20392;-74
2021/01/29 02:03:01;;;;;;;;;;;;;;;8.41;100.00;99584.59;4920583;29;21261;-74
2021/01/29 02:05:30;;;;;;;;;;;;;;;8.40;100.00;99584.88;4887214;29;19915;-74
2021/01/29 02:07:59;;;;;;;;;;;;;;;8.38;100.00;99584.31;4885454;29;20328;-74
2021/01/29 02:10:26;;;;;;;;;;;;;;;8.38;100.00;99598.97;4904921;29;19926;-74
2021/01/29 02:12:52;;;;;;;;;;;;;;;8.37;100.00;99594.56;4904662;29;19978;-74
2021/01/29 02:15:18;;;;;;;;;;;;;;;8.36;100.00;99604.00;4895502;29;19919;-74
2021/01/29 02:17:59;;;;;;;;;;;;;;;8.36;100.00;99603.16;4914218;29;20292;-74
2021/01/29 02:20:39;;;;;;;;;;;;;;;8.34;100.00;99605.44;4896859;29;19966;-74
2021/01/29 02:23:20;;;;;;;;;;;;;;;8.37;100.00;99604.81;4916450;29;19950;-74
2021/01/29 02:26:04;;;;;;;;;;;;;;;8.37;100.00;99610.34;4920123;29;20372;-74
2021/01/29 02:28:35;;;;;;;;;;;;;;;8.37;100.00;99615.88;4907223;29;19919;-74
2021/01/29 02:31:07;;;;;;;;;;;;;;;8.35;100.00;99609.81;4917132;29;19923;-73
2021/01/29 02:33:51;;;;;;;;;;;;;;;8.36;100.00;99614.22;4923644;29;19924;-74
2021/01/29 02:36:57;;;;;;;;;;;;;;;8.34;100.00;99610.97;4915920;29;19927;-74
2021/01/29 02:39:29;;;;;;;;;;;;;;;8.31;100.00;99617.09;4896132;29;19922;-74
2021/01/29 02:42:26;;;;;;;;;;;;;;;8.31;100.00;99608.81;4899459;29;19919;-74
2021/01/29 02:45:11;;;;;;;;;;;;;;;8.29;100.00;99614.63;4869192;29;20276;-74
2021/01/29 02:47:38;;;;;;;;;;;;;;;8.27;100.00;99614.09;4904596;29;19950;-74
2021/01/29 02:50:09;;;;;;;;;;;;;;;8.23;100.00;99619.41;4917119;29;19943;-74
2021/01/29 02:52:55;;;;;;;;;;;;;;;8.24;100.00;99612.75;4917557;29;19919;-74
2021/01/29 02:55:20;;;;;;;;;;;;;;;8.21;100.00;99616.13;4907072;29;19966;-74
2021/01/29 02:57:47;;;;;;;;;;;;;;;8.18;100.00;99618.66;4901481;29;19916;-74
2021/01/29 03:00:22;;;;;;;;;;;;;;;8.15;100.00;99609.03;4936186;29;19970;-74
2021/01/29 03:02:53;;;;;;;;;;;;;;;8.14;100.00;99615.69;4917891;29;19927;-74
2021/01/29 03:05:27;;;;;;;;;;;;;;;8.11;100.00;99612.69;4887024;29;20386;-74
2021/01/29 03:08:13;;;;;;;;;;;;;;;8.05;100.00;99617.47;4915510;29;20029;-74
2021/01/29 03:10:42;;;;;;;;;;;;;;;8.02;100.00;99615.28;4913535;29;19946;-74
2021/01/29 03:13:19;;;;;;;;;;;;;;;7.99;100.00;99622.25;4874918;29;19923;-74
2021/01/29 03:15:48;;;;;;;;;;;;;;;7.97;100.00;99605.16;4899302;29;19927;-74
2021/01/29 03:18:43;;;;;;;;;;;;;;;7.96;100.00;99610.97;4920259;29;19971;-74
2021/01/29 03:21:16;;;;;;;;;;;;;;;7.91;100.00;99624.84;4919539;29;19947;-74
2021/01/29 03:24:01;;;;;;;;;;;;;;;7.88;100.00;99625.47;4903468;29;20036;-74
2021/01/29 03:26:42;;;;;;;;;;;;;;;7.83;100.00;99618.06;4904705;29;19915;-74
2021/01/29 03:29:09;;;;;;;;;;;;;;;7.79;100.00;99612.31;4903332;29;19962;-74
2021/01/29 03:31:37;;;;;;;;;;;;;;;7.75;100.00;99602.97;4903342;29;19919;-73
2021/01/29 03:34:09;;;;;;;;;;;;;;;7.72;100.00;99600.81;4902615;29;19923;-74
2021/01/29 03:36:39;;;;;;;;;;;;;;;7.70;100.00;99593.94;4915109;29;19919;-74
2021/01/29 03:39:05;;;;;;;;;;;;;;;7.66;100.00;99604.75;4910599;29;19938;-74
2021/01/29 03:41:40;;;;;;;;;;;;;;;7.61;100.00;99593.78;4894135;29;19915;-74
2021/01/29 03:44:14;;;;;;;;;;;;;;;7.60;100.00;99604.00;4901065;29;19919;-74
2021/01/29 03:46:47;;;;;;;;;;;;;;;7.54;100.00;99607.13;4906458;29;19970;-74
2021/01/29 03:49:17;;;;;;;;;;;;;;;7.51;100.00;99604.94;4896344;29;20054;-73
2021/01/29 03:52:01;;;;;;;;;;;;;;;7.48;100.00;99611.06;4933849;29;20280;-74
2021/01/29 03:55:00;;;;;;;;;;;;;;;7.43;100.00;99614.69;4912891;29;19923;-74
2021/01/29 03:57:25;;;;;;;;;;;;;;;7.38;100.00;99612.00;4900007;29;20281;-74
2021/01/29 04:00:07;;;;;;;;;;;;;;;7.32;100.00;99618.72;4917013;29;19915;-74
2021/01/29 04:02:51;;;;;;;;;;;;;;;7.30;100.00;99624.53;4899959;29;20287;-74
2021/01/29 04:05:23;;;;;;;;;;;;;;;7.26;100.00;99615.19;4918601;29;19926;-74
2021/01/29 04:07:49;;;;;;;;;;;;;;;7.26;100.00;99612.41;4910062;29;20280;-74
2021/01/29 04:10:23;;;;;;;;;;;;;;;7.23;100.00;99615.78;4902850;29;20002;-74
2021/01/29 04:13:07;;;;;;;;;;;;;;;7.24;100.00;99605.53;4887407;29;19949;-74
2021/01/29 04:15:38;;;;;;;;;;;;;;;7.21;100.00;99620.75;4925557;29;19979;-73
2021/01/29 04:18:16;;;;;;;;;;;;;;;7.22;100.00;99616.91;4900208;29;19941;-73
2021/01/29 04:20:43;;;;;;;;;;;;;;;7.22;100.00;99603.09;4903695;29;19923;-74
2021/01/29 04:23:11;;;;;;;;;;;;;;;7.21;100.00;99604.19;4915828;29;19923;-74
2021/01/29 04:25:40;;;;;;;;;;;;;;;7.21;100.00;99600.59;4876627;29;19915;-74
2021/01/29 04:28:06;;;;;;;;;;;;;;;7.17;100.00;99589.34;4903385;29;19941;-74
2021/01/29 04:30:35;;;;;;;;;;;;;;;7.18;100.00;99588.22;4885416;29;19915;-74
2021/01/29 04:33:08;;;;;;;;;;;;;;;7.15;100.00;99586.03;4917427;29;20365;-73
2021/01/29 04:35:33;;;;;;;;;;;;;;;7.15;100.00;99592.38;4906037;29;19916;-73
2021/01/29 04:38:04;;;;;;;;;;;;;;;7.15;100.00;99578.56;4906864;29;19919;-74
2021/01/29 04:40:53;;;;;;;;;;;;;;;7.13;100.00;99588.25;4920613;29;20296;-77
2021/01/29 04:43:47;;;;;;;;;;;;;;;7.11;100.00;99582.25;4904086;29;19919;-74
2021/01/29 04:46:31;;;;;;;;;;;;;;;7.11;100.00;99585.00;4918382;29;19916;-73
2021/01/29 04:49:06;;;;;;;;;;;;;;;7.08;100.00;99585.59;4934627;29;20011;-73
2021/01/29 04:51:34;;;;;;;;;;;;;;;7.05;100.00;99589.75;4893069;29;20005;-73
2021/01/29 04:54:19;;;;;;;;;;;;;;;7.08;100.00;99599.38;4923371;29;19958;-73
2021/01/29 04:56:50;;;;;;;;;;;;;;;7.04;100.00;99599.13;4913612;29;20296;-73
2021/01/29 04:59:35;;;;;;;;;;;;;;;7.05;100.00;99598.03;4912965;29;19919;-73
2021/01/29 05:02:19;;;;;;;;;;;;;;;7.04;100.00;99607.41;4917902;29;20356;-73
2021/01/29 05:04:57;;;;;;;;;;;;;;;7.04;100.00;99610.19;4901078;29;19945;-73
2021/01/29 05:07:41;;;;;;;;;;;;;;;7.05;100.00;99608.22;4919023;29;20391;-73
2021/01/29 05:10:22;;;;;;;;;;;;;;;7.06;100.00;99615.41;4914074;29;20391;-74
2021/01/29 05:12:51;;;;;;;;;;;;;;;7.08;100.00;99627.81;4933734;29;20377;-74
2021/01/29 05:15:24;;;;;;;;;;;;;;;7.10;100.00;99620.06;4906414;29;19923;-73
2021/01/29 05:18:05;;;;;;;;;;;;;;;7.12;100.00;99617.81;4921988;29;20356;-73
2021/01/29 05:20:37;;;;;;;;;;;;;;;7.14;100.00;99618.34;4935560;29;19923;-73
2021/01/29 05:23:20;;;;;;;;;;;;;;;7.18;100.00;99632.41;4921004;29;19926;-73
2021/01/29 05:26:05;;;;;;;;;;;;;;;7.21;100.00;99629.03;4919181;29;19970;-73
2021/01/29 05:28:34;;;;;;;;;;;;;;;7.24;100.00;99639.50;4902220;29;19919;-73
2021/01/29 05:31:18;;;;;;;;;;;;;;;7.26;100.00;99640.03;4921717;29;19923;-73
2021/01/29 05:34:13;;;;;;;;;;;;;;;7.28;100.00;99629.53;4922430;29;19923;-73
2021/01/29 05:36:41;;;;;;;;;;;;;;;7.29;100.00;99622.88;4879386;29;19919;-73
2021/01/29 05:39:10;;;;;;;;;;;;;;;7.30;100.00;99627.31;4918788;29;19915;-73
2021/01/29 05:41:54;;;;;;;;;;;;;;;7.29;100.00;99624.81;4902402;29;19998;-74
2021/01/29 05:44:35;;;;;;;;;;;;;;;7.28;100.00;99626.75;4922651;29;20000;-73
2021/01/29 05:47:03;;;;;;;;;;;;;;;7.29;100.00;99624.81;4936046;29;19970;-73
2021/01/29 05:49:38;;;;;;;;;;;;;;;7.26;100.00;99626.22;4908242;29;19970;-73
2021/01/29 05:52:22;;;;;;;;;;;;;;;7.29;100.00;99624.81;4911094;29;19923;-73
2021/01/29 05:54:57;;;;;;;;;;;;;;;7.25;100.00;99630.13;4917400;29;19938;-73
2021/01/29 05:57:27;;;;;;;;;;;;;;;7.22;100.00;99630.72;4889732;29;19957;-73
2021/01/29 05:59:56;;;;;;;;;;;;;;;7.20;100.00;99623.84;4901444;29;19954;-73
2021/01/29 06:02:24;;;;;;;;;;;;;;;7.18;100.00;99624.09;4896315;29;20384;-73
2021/01/29 06:04:49;;;;;;;;;;;;;;;7.18;100.00;99621.34;4901834;29;20028;-74
2021/01/29 06:07:31;;;;;;;;;;;;;;;7.13;100.00;99619.50;4919666;29;19954;-73
2021/01/29 06:10:02;;;;;;;;;;;;;;;7.15;100.00;99619.19;4919472;29;19915;-73
2021/01/29 06:12:45;;;;;;;;;;;;;;;7.14;100.00;99612.84;4930764;29;19918;-74
2021/01/29 06:15:13;;;;;;;;;;;;;;;7.14;100.00;99618.34;4900135;29;19930;-74
2021/01/29 06:17:48;;;;;;;;;;;;;;;7.13;100.00;99611.19;4902561;29;19919;-74
2021/01/29 06:20:14;;;;;;;;;;;;;;;7.14;100.00;99618.34;4914609;29;19919;-74
2021/01/29 06:22:50;;;;;;;;;;;;;;;7.13;100.00;99618.63;4902796;29;19923;-74
2021/01/29 06:25:34;;;;;;;;;;;;;;;7.11;100.00;99618.13;4905743;29;19919;-74
2021/01/29 06:28:03;;;;;;;;;;;;;;;7.10;100.00;99624.75;4933192;29;20415;-73
2021/01/29 06:30:47;;;;;;;;;;;;;;;7.10;100.00;99624.75;4916236;29;19919;-74
2021/01/29 06:33:15;;;;;;;;;;;;;;;7.10;100.00;99614.56;4938375;29;19972;-74
2021/01/29 06:35:44;;;;;;;;;;;;;;;7.10;100.00;99614.56;4917245;29;19919;-73
2021/01/29 06:38:12;;;;;;;;;;;;;;;7.10;100.00;99616.47;4896986;29;19919;-73
2021/01/29 06:40:41;;;;;;;;;;;;;;;7.09;100.00;99620.34;4901992;29;20376;-73
2021/01/29 06:43:10;;;;;;;;;;;;;;;7.09;100.00;99625.88;4918484;29;19975;-73
2021/01/29 06:45:54;;;;;;;;;;;;;;;7.09;100.00;99621.16;4916790;29;19915;-73
2021/01/29 06:48:30;;;;;;;;;;;;;;;7.11;100.00;99629.19;4917911;29;20359;-73
2021/01/29 06:51:19;;;;;;;;;;;;;;;7.13;100.00;99624.16;4912561;29;19915;-73
2021/01/29 06:53:51;;;;;;;;;;;;;;;7.13;100.00;99626.91;4908904;29;19927;-73
2021/01/29 06:56:35;;;;;;;;;;;;;;;7.12;100.00;99630.81;4918904;29;20332;-74
2021/01/29 06:59:13;;;;;;;;;;;;;;;7.15;100.00;99632.97;4936649;29;19916;-73
2021/01/29 07:01:58;;;;;;;;;;;;;;;7.16;100.00;99642.94;4918038;29;19919;-73
2021/01/29 07:04:47;;;;;;;;;;;;;;;7.18;100.00;99637.09;4904548;29;19921;-73
2021/01/29 07:07:12;;;;;;;;;;;;;;;7.20;100.00;99649.50;4918470;29;19947;-73
2021/01/29 07:09:47;;;;;;;;;;;;;;;7.22;100.00;99636.22;4911766;29;19919;-73
2021/01/29 07:12:15;;;;;;;;;;;;;;;7.25;100.00;99657.75;4904307;29;19943;-74
2021/01/29 07:14:44;;;;;;;;;;;;;;;7.25;100.00;99630.13;4918139;29;19928;-74
2021/01/29 07:17:10;;;;;;;;;;;;;;;7.28;100.00;99635.06;4896395;29;19919;-74
2021/01/29 07:19:39;;;;;;;;;;;;;;;7.30;100.00;99630.06;4883772;29;20288;-73
2021/01/29 07:22:29;;;;;;;;;;;;;;;7.33;100.00;99631.41;4923441;29;20415;-73
2021/01/29 07:25:20;;;;;;;;;;;;;;;7.35;100.00;99632.78;4918501;29;19938;-73
2021/01/29 07:28:06;;;;;;;;;;;;;;;7.37;100.00;99641.56;4905521;29;19921;-80
2021/01/29 07:31:04;;;;;;;;;;;;;;;7.39;100.00;99639.34;4912527;28;19923;-74
2021/01/29 07:33:53;;;;;;;;;;;;;;;7.41;100.00;99636.31;4922000;28;19975;-74
2021/01/29 07:36:57;;;;;;;;;;;;;;;7.44;100.00;99640.38;4920828;28;19914;-73
2021/01/29 07:39:52;;;;;;;;;;;;;;;7.44;100.00;99623.81;4932540;29;19923;-72
2021/01/29 07:42:52;;;;;;;;;;;;;;;7.44;100.00;99626.56;4921811;29;19978;-73
2021/01/29 07:45:57;;;;;;;;;;;;;;;7.43;100.00;99636.00;4920649;29;19925;-71
2021/01/29 07:48:55;;;;;;;;;;;;;;;7.43;100.00;99636.00;4936735;28;19922;-71
2021/01/29 07:51:44;;;;;;;;;;;;;;;7.42;100.00;99648.16;4917866;29;20553;-71
2021/01/29 07:54:30;;;;;;;;;;;;;;;7.41;100.00;99644.59;4929670;29;19927;-74
2021/01/29 07:57:27;;;;;;;;;;;;;;;7.39;100.00;99647.63;4924427;28;19920;-74
2021/01/29 08:00:22;;;;;;;;;;;;;;;7.39;100.00;99653.16;4918560;29;20372;-74
2021/01/29 08:03:27;;;;;;;;;;;;;;;7.37;100.00;99649.84;4913368;29;19915;-74
2021/01/29 08:06:42;;;;;;;;;;;;;;;7.32;100.00;99643.56;4922896;28;20342;-74
2021/01/29 08:09:35;;;;;;;;;;;;;;;7.31;100.00;99655.75;4924477;29;19919;-74
2021/01/29 08:12:32;;;;;;;;;;;;;;;7.29;100.00;99650.50;4911811;29;19915;-74
2021/01/29 08:15:22;;;;;;;;;;;;;;;7.31;100.00;99644.69;4916484;29;19923;-74
2021/01/29 08:18:11;;;;;;;;;;;;;;;7.30;100.00;99652.16;4919971;29;19981;-74
2021/01/29 08:21:06;;;;;;;;;;;;;;;7.30;100.00;99654.94;4915234;29;19923;-74
2021/01/29 08:24:12;;;;;;;;;;;;;;;7.30;100.00;99660.44;4929660;29;19923;-74
2021/01/29 08:27:04;;;;;;;;;;;;;;;7.33;100.00;99648.81;4934125;29;20573;-74
2021/01/29 08:30:05;;;;;;;;;;;;;;;7.37;100.00;99651.81;4914770;29;20882;-74
2021/01/29 08:33:06;;;;;;;;;;;;;;;7.41;100.00;99663.94;4936330;29;19996;-74
2021/01/29 08:36:18;;;;;;;;;;;;;;;7.45;100.00;99678.78;4935330;29;19918;-74
2021/01/29 08:39:25;;;;;;;;;;;;;;;7.48;100.00;99663.56;4922012;29;19931;-74
2021/01/29 08:42:33;;;;;;;;;;;;;;;7.52;100.00;99659.06;4921815;29;19990;-74
2021/01/29 08:45:25;;;;;;;;;;;;;;;7.56;100.00;99674.78;4934088;29;19923;-74
2021/01/29 08:48:13;;;;;;;;;;;;;;;7.60;100.00;99677.78;4907738;29;19914;-74
2021/01/29 08:50:59;;;;;;;;;;;;;;;7.64;100.00;99681.59;4925820;29;19958;-74
2021/01/29 08:54:06;;;;;;;;;;;;;;;7.65;100.00;99677.72;4937352;29;19978;-75
2021/01/29 08:56:55;;;;;;;;;;;;;;;7.68;100.00;99668.84;4921238;29;20010;-74
2021/01/29 08:59:48;;;;;;;;;;;;;;;7.68;100.00;99657.78;4906172;29;19951;-74
2021/01/29 09:02:34;;;;;;;;;;;;;;;7.68;100.00;99659.72;4907862;29;19918;-74
2021/01/29 09:05:34;;;;;;;;;;;;;;;7.68;100.00;99654.19;4936352;29;19918;-73
2021/01/29 09:08:23;;;;;;;;;;;;;;;7.70;100.00;99663.84;4911349;29;20014;-74
2021/01/29 09:11:22;;;;;;;;;;;;;;;7.73;100.00;99649.44;4911450;29;19919;-74
2021/01/29 09:14:13;;;;;;;;;;;;;;;7.79;100.00;99655.72;4917071;29;19919;-74
2021/01/29 09:17:19;;;;;;;;;;;;;;;7.85;100.00;99646.22;4909342;29;19966;-74
2021/01/29 09:20:08;;;;;;;;;;;;;;;7.94;100.00;99652.75;4924716;29;19942;-74
2021/01/29 09:23:07;;;;;;;;;;;;;;;8.02;100.00;99656.78;4915756;29;19923;-74
2021/01/29 09:26:16;;;;;;;;;;;;;;;8.10;100.00;99655.28;4920522;29;19915;-74
2021/01/29 09:29:40;;;;;;;;;;;;;;;8.20;100.00;99661.50;4925957;29;19918;-74
2021/01/29 09:32:46;;;;;;;;;;;;;;;8.29;100.00;99658.88;4898754;29;19920;-74
2021/01/29 09:35:46;;;;;;;;;;;;;;;8.42;100.00;99660.13;4903289;29;19931;-74
2021/01/29 09:38:35;;;;;;;;;;;;;;;8.52;100.00;99673.78;4898438;29;20010;-74
2021/01/29 09:41:24;;;;;;;;;;;;;;;8.63;100.00;99669.72;4873378;29;19963;-74
2021/01/29 09:44:22;;;;;;;;;;;;;;;8.75;100.00;99663.72;4913861;29;20009;-74
2021/01/29 09:47:15;;;;;;;;;;;;;;;8.88;100.00;99684.25;4919260;28;19958;-74
2021/01/29 09:50:01;;;;;;;;;;;;;;;9.02;100.00;99670.47;4908031;29;19926;-74
2021/01/29 09:53:06;;;;;;;;;;;;;;;9.12;100.00;99684.94;4912012;29;19923;-74
2021/01/29 09:55:54;;;;;;;;;;;;;;;9.24;100.00;99691.94;4936418;29;19919;-74
2021/01/29 09:58:59;;;;;;;;;;;;;;;9.32;100.00;99705.09;4907401;29;19922;-74
2021/01/29 10:01:49;;;;;;;;;;;;;;;9.40;100.00;99709.94;4928285;29;19926;-74
2021/01/29 10:04:20;;;;;;;;;;;;;;;9.48;100.00;99713.97;4908804;29;20398;-73
2021/01/29 10:06:59;;;;;;;;;;;;;;;9.54;100.00;99716.31;4892943;29;20199;-74
2021/01/29 10:09:47;;;;;;;;;;;;;;;9.59;100.00;99730.09;4907529;29;19947;-74
2021/01/29 10:12:19;;;;;;;;;;;;;;;9.67;100.00;99725.78;4921438;29;20355;-74
2021/01/29 10:15:03;;;;;;;;;;;;;;;9.70;100.00;99725.16;4905693;29;19919;-74
2021/01/29 10:17:41;;;;;;;;;;;;;;;9.78;100.00;99737.50;4920971;29;19974;-74
2021/01/29 10:20:42;;;;;;;;;;;;;;;9.86;100.00;99739.53;4915405;29;19994;-74
2021/01/29 10:23:15;;;;;;;;;;;;;;;9.93;100.00;99755.78;4908472;29;19970;-74
2021/01/29 10:25:57;;;;;;;;;;;;;;;10.02;100.00;99742.81;4905372;29;19926;-74
2021/01/29 10:28:53;;;;;;;;;;;;;;;10.05;100.00;99765.22;4905717;29;19959;-74
2021/01/29 10:31:27;;;;;;;;;;;;;;;10.13;100.00;99768.41;4929848;29;19970;-74
2021/01/29 10:34:37;;;;;;;;;;;;;;;10.18;100.00;99769.13;4891500;29;19947;-74
2021/01/29 10:37:11;;;;;;;;;;;;;;;10.27;100.00;99769.25;4895615;29;20271;-74
2021/01/29 10:39:45;;;;;;;;;;;;;;;10.32;100.00;99771.91;4904002;29;19970;-74
2021/01/29 10:42:24;;;;;;;;;;;;;;;10.40;100.00;99775.94;4918320;29;19915;-74
2021/01/29 10:44:58;;;;;;;;;;;;;;;10.47;100.00;99771.59;4906097;29;20005;-74
2021/01/29 10:47:32;;;;;;;;;;;;;;;10.56;100.00;99781.94;4891204;29;20440;-75
2021/01/29 10:50:12;;;;;;;;;;;;;;;10.59;99.03;99773.84;4905395;29;19921;-74
2021/01/29 10:52:42;;;;;;;;;;;;;;;10.65;99.60;99783.69;4904424;29;19919;-74
2021/01/29 10:55:23;;;;;;;;;;;;;;;10.71;99.93;99787.16;4905980;29;19938;-74
2021/01/29 10:58:06;;;;;;;;;;;;;;;10.77;99.42;99785.09;4919449;29;19923;-74
2021/01/29 11:00:34;;;;;;;;;;;;;;;10.83;98.25;99789.38;4890550;29;19925;-74
2021/01/29 11:03:06;;;;;;;;;;;;;;;10.86;98.31;99786.78;4918846;29;19922;-74
2021/01/29 11:05:40;;;;;;;;;;;;;;;10.91;98.21;99794.19;4906922;29;19934;-74
2021/01/29 11:08:25;;;;;;;;;;;;;;;10.94;98.13;99786.06;4905514;29;19918;-74
2021/01/29 11:11:29;;;;;;;;;;;;;;;11.02;98.19;99786.44;4903509;29;19919;-74
2021/01/29 11:14:16;;;;;;;;;;;;;;;11.08;97.61;99807.41;4871959;29;21732;-74
2021/01/29 11:16:46;;;;;;;;;;;;;;;11.13;97.04;99805.34;4864966;29;19920;-74
2021/01/29 11:19:18;;;;;;;;;;;;;;;11.18;96.54;99818.28;4861717;29;19920;-74
2021/01/29 11:21:51;;;;;;;;;;;;;;;11.23;96.09;99815.41;4863984;29;19937;-74
2021/01/29 11:24:36;;;;;;;;;;;;;;;11.25;95.89;99804.75;4851152;29;19966;-74
2021/01/29 11:27:02;;;;;;;;;;;;;;;11.33;95.66;99819.88;4862354;29;19920;-74
2021/01/29 11:29:36;;;;;;;;;;;;;;;11.39;96.29;99808.31;4862370;29;19920;-74
2021/01/29 11:32:20;;;;;;;;;;;;;;;11.45;96.16;99805.38;4854920;29;19922;-74
2021/01/29 11:34:53;;;;;;;;;;;;;;;11.52;96.14;99812.16;4864256;29;20182;-74
2021/01/29 11:37:37;;;;;;;;;;;;;;;11.57;95.56;99803.69;4844583;29;20376;-74
2021/01/29 11:40:13;;;;;;;;;;;;;;;11.67;95.46;99804.53;4860741;29;19922;-74
2021/01/29 11:42:58;;;;;;;;;;;;;;;11.73;95.61;99801.34;4859029;29;20464;-74
2021/01/29 11:45:24;;;;;;;;;;;;;;;11.81;95.51;99820.03;4890754;29;19935;-74
2021/01/29 11:48:13;;;;;;;;;;;;;;;11.87;95.22;99811.56;4926115;29;19919;-74
2021/01/29 11:50:42;;;;;;;;;;;;;;;11.97;94.74;99819.63;4893804;29;20287;-74
2021/01/29 11:53:14;;;;;;;;;;;;;;;12.01;94.58;99815.91;4918651;29;19919;-74
2021/01/29 11:55:44;;;;;;;;;;;;;;;12.08;94.48;99819.03;4885704;29;19923;-74
2021/01/29 11:58:13;;;;;;;;;;;;;;;12.13;94.36;99812.50;4901958;29;19966;-74
2021/01/29 12:00:41;;;;;;;;;;;;;;;12.21;94.39;99810.91;4917476;29;19927;-74
2021/01/29 12:03:19;;;;;;;;;;;;;;;12.25;93.72;99812.69;4898177;29;19942;-74
2021/01/29 12:05:48;;;;;;;;;;;;;;;12.32;93.11;99815.03;4917109;29;19919;-74
2021/01/29 12:08:25;;;;;;;;;;;;;;;12.35;92.07;99810.78;4904080;29;20480;-74
2021/01/29 12:10:59;;;;;;;;;;;;;;;12.40;91.27;99819.00;4917801;29;19947;-74
2021/01/29 12:13:53;;;;;;;;;;;;;;;12.44;91.01;99819.97;4915706;29;20002;-74
2021/01/29 12:16:25;;;;;;;;;;;;;;;12.45;90.54;99825.25;4908368;29;19982;-74
2021/01/29 12:18:51;;;;;;;;;;;;;;;12.49;90.67;99822.63;4897349;29;19915;-74
2021/01/29 12:21:23;;;;;;;;;;;;;;;12.50;90.38;99816.72;4901981;29;20285;-74
2021/01/29 12:23:48;;;;;;;;;;;;;;;12.54;90.17;99819.69;4897290;29;19919;-74
2021/01/29 12:26:26;;;;;;;;;;;;;;;12.56;90.04;99813.78;4903562;29;19919;-74
2021/01/29 12:28:58;;;;;;;;;;;;;;;12.59;90.49;99805.63;4900708;29;19926;-74
2021/01/29 12:31:23;;;;;;;;;;;;;;;12.63;90.08;99816.91;4914616;29;19919;-74
2021/01/29 12:33:48;;;;;;;;;;;;;;;12.66;89.71;99805.94;4917879;29;19970;-74
2021/01/29 12:36:16;;;;;;;;;;;;;;;12.68;88.87;99809.22;4900576;29;19922;-74
2021/01/29 12:38:54;;;;;;;;;;;;;;;12.69;88.68;99796.94;4889867;29;20688;-74
2021/01/29 12:41:38;;;;;;;;;;;;;;;12.72;88.56;99804.63;4921014;29;20013;-74
2021/01/29 12:44:21;;;;;;;;;;;;;;;12.74;89.04;99791.19;4889155;29;19919;-74
2021/01/29 12:47:06;;;;;;;;;;;;;;;12.78;88.66;99799.72;4913841;29;19923;-74
2021/01/29 12:49:44;;;;;;;;;;;;;;;12.79;88.39;99804.16;4914814;29;19919;-74
2021/01/29 12:52:15;;;;;;;;;;;;;;;12.83;88.49;99804.31;4920808;29;19919;-74
2021/01/29 12:55:10;;;;;;;;;;;;;;;12.84;88.19;99803.16;4921112;29;20284;-74
2021/01/29 12:57:38;;;;;;;;;;;;;;;12.84;87.78;99794.81;4923167;29;20415;-74
2021/01/29 13:00:27;;;;;;;;;;;;;;;12.82;86.11;99792.38;4876258;29;19923;-74
2021/01/29 13:02:55;;;;;;;;;;;;;;;12.82;86.26;99792.38;4905680;29;20013;-74
2021/01/29 13:05:38;;;;;;;;;;;;;;;12.84;86.42;99786.44;4919754;29;19915;-74
2021/01/29 13:08:19;;;;;;;;;;;;;;;12.82;86.72;99780.41;4916407;29;20073;-74
2021/01/29 13:11:08;;;;;;;;;;;;;;;12.83;86.72;99782.03;4900603;29;19943;-74
2021/01/29 13:13:33;;;;;;;;;;;;;;;12.81;86.57;99779.56;4917768;29;19931;-74
2021/01/29 13:16:12;;;;;;;;;;;;;;;12.82;86.29;99784.00;4920072;29;19922;-74
2021/01/29 13:19:04;;;;;;;;;;;;;;;12.80;85.93;99779.91;4902583;29;19923;-74
2021/01/29 13:21:33;;;;;;;;;;;;;;;12.76;85.13;99771.38;4905529;29;19931;-74
2021/01/29 13:23:59;;;;;;;;;;;;;;;12.73;84.27;99767.28;4901125;29;19915;-73
2021/01/29 13:26:33;;;;;;;;;;;;;;;12.73;84.20;99772.00;4914104;29;19926;-74
2021/01/29 13:29:05;;;;;;;;;;;;;;;12.69;83.58;99771.84;4910482;29;19959;-74
2021/01/29 13:31:37;;;;;;;;;;;;;;;12.67;83.34;99773.31;4920892;29;19947;-74
2021/01/29 13:34:10;;;;;;;;;;;;;;;12.64;83.60;99776.75;4918412;29;19955;-74
2021/01/29 13:36:37;;;;;;;;;;;;;;;12.60;84.16;99756.28;4903486;29;20017;-74
2021/01/29 13:39:15;;;;;;;;;;;;;;;12.52;83.30;99769.06;4902572;29;20429;-74
2021/01/29 13:42:11;;;;;;;;;;;;;;;12.50;84.15;99769.38;4933054;29;19997;-74
2021/01/29 13:44:41;;;;;;;;;;;;;;;12.43;82.94;99763.47;4896594;29;19982;-74
2021/01/29 13:47:16;;;;;;;;;;;;;;;12.42;83.50;99766.56;4915250;29;19919;-74